Time;durP1;ratioP1;P1;durP2;ratioP2;P2;SDS_P1;SDS_P2;PMS_P1;PMS_P2;Temp;Humidity;BMP_temperature;BMP_pressure;BME280_temperature;BME280_humidity;BME280_pressure;Samples;Min_cycle;Max_cycle;Signal;HPM_P1;HPM_P2
2021/08/06 00:01:26;;;;;;;7.13;6.63;;;17.20;99.90;;;;;;5095228;28;20192;-70
2021/08/06 00:03:53;;;;;;;6.70;6.10;;;17.30;99.90;;;;;;5089406;28;20191;-70
2021/08/06 00:06:20;;;;;;;7.60;6.60;;;17.20;99.90;;;;;;5094782;28;20230;-68
2021/08/06 00:11:51;;;;;;;6.63;6.13;;;17.20;99.90;;;;;;5090205;28;20429;-69
2021/08/06 00:14:17;;;;;;;7.17;6.57;;;17.20;99.90;;;;;;5094293;28;20876;-68
2021/08/06 00:16:42;;;;;;;6.90;6.00;;;17.20;99.90;;;;;;5094259;28;20410;-67
2021/08/06 00:19:08;;;;;;;7.30;6.60;;;17.20;99.90;;;;;;5094831;28;20240;-70
2021/08/06 00:21:33;;;;;;;6.93;6.00;;;17.20;99.90;;;;;;5093648;28;20709;-70
2021/08/06 00:23:59;;;;;;;7.53;6.93;;;17.20;99.90;;;;;;5092946;28;20176;-69
2021/08/06 00:26:25;;;;;;;7.70;7.10;;;17.20;99.90;;;;;;5094277;28;20259;-70
2021/08/06 00:28:51;;;;;;;7.10;6.50;;;17.30;99.90;;;;;;5093982;28;20179;-70
2021/08/06 00:31:19;;;;;;;6.60;6.00;;;17.30;99.90;;;;;;5093917;28;20508;-68
2021/08/06 00:33:44;;;;;;;9.20;6.60;;;17.30;99.90;;;;;;5094458;28;20226;-70
2021/08/06 00:36:10;;;;;;;7.23;6.63;;;17.30;99.90;;;;;;5094120;28;20811;-69
2021/08/06 00:38:35;;;;;;;8.60;6.57;;;17.30;99.90;;;;;;5094034;28;20173;-69
2021/08/06 00:41:01;;;;;;;8.20;7.40;;;17.30;99.90;;;;;;5093964;28;20246;-69
2021/08/06 00:43:26;;;;;;;7.37;6.00;;;17.40;99.90;;;;;;5093794;28;20167;-70
2021/08/06 00:45:55;;;;;;;6.30;5.70;;;17.30;99.90;;;;;;5093855;28;20191;-69
2021/08/06 00:48:21;;;;;;;6.53;5.93;;;17.30;99.90;;;;;;5093812;28;20166;-70
2021/08/06 00:50:46;;;;;;;7.50;6.30;;;17.30;99.90;;;;;;5093472;28;20434;-70
2021/08/06 00:53:12;;;;;;;6.80;6.13;;;17.30;99.90;;;;;;5093023;28;20190;-67
2021/08/06 00:55:38;;;;;;;6.43;5.83;;;17.40;99.90;;;;;;5075561;28;20176;-68
2021/08/06 00:58:03;;;;;;;6.50;6.00;;;17.40;99.90;;;;;;5093259;28;20790;-69
2021/08/06 01:00:29;;;;;;;6.73;6.10;;;17.40;99.90;;;;;;5093977;28;20200;-68
2021/08/06 01:03:23;;;;;;;6.77;6.17;;;17.40;99.90;;;;;;5089264;28;20184;-69
2021/08/06 01:06:01;;;;;;;6.53;5.90;;;17.40;99.90;;;;;;5088835;28;20235;-69
2021/08/06 01:09:03;;;;;;;7.50;6.90;;;17.40;99.90;;;;;;5093303;28;20405;-69
2021/08/06 01:11:35;;;;;;;6.23;5.73;;;17.40;99.90;;;;;;5083832;28;20426;-68
2021/08/06 01:14:06;;;;;;;6.30;5.77;;;17.40;99.90;;;;;;5091915;28;20502;-70
2021/08/06 01:16:38;;;;;;;6.07;5.57;;;17.40;99.90;;;;;;5072193;28;20419;-70
2021/08/06 01:19:33;;;;;;;7.53;6.83;;;17.40;99.90;;;;;;5071479;28;20416;-69
2021/08/06 01:22:16;;;;;;;7.33;6.73;;;17.40;99.90;;;;;;5074425;28;20826;-68
2021/08/06 01:24:53;;;;;;;6.90;6.40;;;17.50;99.90;;;;;;5070270;28;20410;-69
2021/08/06 01:27:28;;;;;;;7.00;6.00;;;17.50;99.90;;;;;;5072443;28;20410;-69
2021/08/06 01:29:56;;;;;;;7.57;6.97;;;17.50;99.90;;;;;;5072385;28;20413;-67
2021/08/06 01:32:31;;;;;;;6.97;6.37;;;17.50;99.90;;;;;;5071128;28;20403;-69
2021/08/06 01:35:19;;;;;;;7.70;7.00;;;17.50;99.90;;;;;;5072044;28;20415;-70
2021/08/06 01:37:50;;;;;;;7.20;6.50;;;17.50;99.90;;;;;;5073486;28;20418;-70
2021/08/06 01:40:20;;;;;;;6.50;5.90;;;17.50;99.90;;;;;;5072856;28;20426;-69
2021/08/06 01:43:19;;;;;;;6.60;6.10;;;17.50;99.90;;;;;;5077791;28;20410;-70
2021/08/06 01:46:04;;;;;;;6.53;6.00;;;17.50;99.90;;;;;;5088280;28;20457;-69
2021/08/06 01:48:41;;;;;;;7.23;6.73;;;17.50;99.90;;;;;;5092151;28;20883;-69
2021/08/06 01:51:13;;;;;;;6.87;6.37;;;17.50;99.90;;;;;;5092768;28;20418;-69
2021/08/06 01:53:45;;;;;;;5.93;5.43;;;17.50;99.90;;;;;;5092963;28;20430;-70
2021/08/06 01:56:20;;;;;;;6.20;5.70;;;17.50;99.90;;;;;;5085844;28;20423;-69
2021/08/06 01:58:54;;;;;;;6.63;6.13;;;17.50;99.90;;;;;;5072489;28;21010;-69
2021/08/06 02:01:32;;;;;;;7.93;7.23;;;17.50;99.90;;;;;;5072498;28;20444;-70
2021/08/06 02:04:09;;;;;;;6.60;6.10;;;17.50;99.90;;;;;;5072514;28;20407;-70
2021/08/06 02:06:38;;;;;;;7.50;6.90;;;17.50;99.90;;;;;;5071170;28;20592;-68
2021/08/06 02:09:14;;;;;;;7.70;7.00;;;17.50;99.90;;;;;;5071781;28;20396;-69
2021/08/06 02:11:43;;;;;;;7.27;6.77;;;17.50;99.90;;;;;;5072288;28;20822;-69
2021/08/06 02:14:11;;;;;;;7.37;6.77;;;17.50;99.90;;;;;;5072142;28;20412;-68
2021/08/06 02:16:43;;;;;;;7.50;7.00;;;17.50;99.90;;;;;;5072064;28;20941;-68
2021/08/06 02:19:22;;;;;;;7.20;6.60;;;17.40;99.90;;;;;;5072616;28;20486;-69
2021/08/06 02:21:57;;;;;;;8.00;7.30;;;17.40;99.90;;;;;;5072428;28;20427;-69
2021/08/06 02:24:33;;;;;;;7.77;6.93;;;17.40;99.90;;;;;;5072309;28;20431;-70
2021/08/06 02:27:03;;;;;;;6.70;6.20;;;17.40;99.90;;;;;;5071997;28;20445;-70
2021/08/06 02:32:23;;;;;;;7.33;6.73;;;17.40;99.90;;;;;;5070418;28;20409;-68
2021/08/06 02:35:00;;;;;;;6.93;6.40;;;17.40;99.90;;;;;;5079545;28;20408;-69
2021/08/06 02:37:26;;;;;;;7.53;6.93;;;17.40;99.90;;;;;;5092348;28;20761;-69
2021/08/06 02:39:55;;;;;;;7.20;6.50;;;17.40;99.90;;;;;;5092023;28;20455;-69
2021/08/06 02:42:23;;;;;;;6.97;6.40;;;17.40;99.90;;;;;;5091995;28;20194;-69
2021/08/06 02:44:51;;;;;;;7.23;6.53;;;17.40;99.90;;;;;;5092354;28;20983;-69
2021/08/06 02:47:16;;;;;;;6.60;6.10;;;17.40;99.90;;;;;;5084157;28;20938;-67
2021/08/06 02:49:41;;;;;;;6.33;5.80;;;17.40;99.90;;;;;;5090140;28;20434;-67
2021/08/06 02:52:08;;;;;;;6.87;6.27;;;17.40;99.90;;;;;;5091620;28;20199;-67
2021/08/06 02:54:34;;;;;;;6.83;6.33;;;17.40;99.90;;;;;;5091405;28;20175;-68
2021/08/06 02:57:09;;;;;;;7.53;6.93;;;17.40;99.90;;;;;;5091998;28;20545;-69
2021/08/06 02:59:34;;;;;;;7.00;6.50;;;17.40;99.90;;;;;;5091573;28;20417;-69
2021/08/06 03:02:00;;;;;;;6.80;6.20;;;17.30;99.90;;;;;;5091324;28;20438;-69
2021/08/06 03:04:25;;;;;;;7.13;6.43;;;17.30;99.90;;;;;;5091473;28;20231;-69
2021/08/06 03:06:50;;;;;;;7.03;6.53;;;17.40;99.90;;;;;;5091254;28;20607;-69
2021/08/06 03:09:16;;;;;;;6.87;6.27;;;17.30;99.90;;;;;;5091805;28;20204;-69
2021/08/06 03:11:41;;;;;;;6.20;5.70;;;17.30;99.90;;;;;;5091271;28;20187;-68
2021/08/06 03:14:07;;;;;;;7.20;6.70;;;17.30;99.90;;;;;;5091748;28;20669;-68
2021/08/06 03:16:32;;;;;;;6.40;5.90;;;17.30;99.90;;;;;;5091527;28;20225;-68
2021/08/06 03:18:58;;;;;;;7.37;6.67;;;17.30;99.90;;;;;;5091436;28;20254;-68
2021/08/06 03:21:23;;;;;;;6.60;6.00;;;17.30;99.90;;;;;;5095059;28;20234;-68
2021/08/06 03:23:49;;;;;;;6.43;5.83;;;17.30;99.90;;;;;;5092150;28;20632;-69
2021/08/06 03:26:14;;;;;;;7.20;6.60;;;17.30;99.90;;;;;;5095203;28;20199;-68
2021/08/06 03:28:40;;;;;;;8.53;7.30;;;17.30;99.90;;;;;;5095110;28;20583;-69
2021/08/06 03:31:05;;;;;;;6.77;6.27;;;17.30;99.90;;;;;;5094941;28;20223;-69
2021/08/06 03:33:31;;;;;;;7.40;6.80;;;17.30;99.90;;;;;;5095773;28;20297;-69
2021/08/06 03:35:56;;;;;;;7.20;6.70;;;17.40;99.90;;;;;;5094976;28;20177;-69
2021/08/06 03:38:24;;;;;;;7.27;6.67;;;17.40;99.90;;;;;;5095214;28;20177;-69
2021/08/06 03:40:51;;;;;;;6.63;6.13;;;17.40;99.90;;;;;;5094968;28;20196;-69
2021/08/06 03:43:17;;;;;;;6.47;5.87;;;17.40;99.90;;;;;;5095141;28;20419;-69
2021/08/06 03:45:43;;;;;;;6.73;6.23;;;17.30;99.90;;;;;;5094216;28;20442;-69
2021/08/06 03:48:09;;;;;;;7.13;6.63;;;17.30;99.90;;;;;;5090487;28;20178;-70
2021/08/06 03:50:36;;;;;;;11.67;7.17;;;17.40;99.90;;;;;;5094629;28;20188;-70
2021/08/06 03:53:02;;;;;;;6.63;6.13;;;17.40;99.90;;;;;;5094392;28;20576;-69
2021/08/06 03:55:28;;;;;;;7.10;6.60;;;17.40;99.90;;;;;;5094430;28;20452;-69
2021/08/06 03:57:58;;;;;;;7.27;6.67;;;17.40;99.90;;;;;;5094192;28;20403;-69
2021/08/06 04:00:26;;;;;;;6.93;6.27;;;17.40;99.90;;;;;;5094194;28;20668;-68
2021/08/06 04:02:52;;;;;;;7.60;7.00;;;17.40;99.90;;;;;;5101317;28;20418;-69
2021/08/06 04:05:18;;;;;;;7.73;7.13;;;17.40;99.90;;;;;;5104294;28;21201;-69
2021/08/06 04:07:48;;;;;;;7.70;7.10;;;17.40;99.90;;;;;;5103451;28;20176;-70
2021/08/06 04:10:16;;;;;;;7.87;7.27;;;17.40;99.90;;;;;;5102406;28;20475;-70
2021/08/06 04:12:41;;;;;;;8.80;8.00;;;17.40;99.90;;;;;;5104854;28;20796;-69
2021/08/06 04:15:07;;;;;;;8.83;8.03;;;17.40;99.90;;;;;;5103117;28;20408;-70
2021/08/06 04:17:33;;;;;;;13.20;8.37;;;17.40;99.90;;;;;;5104900;28;20179;-69
2021/08/06 04:19:59;;;;;;;7.90;7.30;;;17.50;99.90;;;;;;5105600;28;20474;-69
2021/08/06 04:22:35;;;;;;;8.80;8.00;;;17.50;99.90;;;;;;5103837;28;20163;-68
2021/08/06 04:25:00;;;;;;;8.83;8.03;;;17.50;99.90;;;;;;5089583;28;20239;-67
2021/08/06 04:27:25;;;;;;;8.57;7.90;;;17.50;99.90;;;;;;5093529;28;21053;-67
2021/08/06 04:29:51;;;;;;;9.37;8.63;;;17.50;99.90;;;;;;5093554;28;20178;-67
2021/08/06 04:32:17;;;;;;;8.70;7.90;;;17.60;99.90;;;;;;5092183;28;20187;-68
2021/08/06 04:34:43;;;;;;;8.10;7.50;;;17.50;99.90;;;;;;5092671;28;20195;-69
2021/08/06 04:37:08;;;;;;;8.23;7.63;;;17.50;99.90;;;;;;5088048;28;20873;-67
2021/08/06 04:39:34;;;;;;;8.17;7.47;;;17.60;99.90;;;;;;5088066;28;20672;-67
2021/08/06 04:42:00;;;;;;;8.70;7.90;;;17.60;99.90;;;;;;5093969;28;20177;-67
2021/08/06 04:44:25;;;;;;;8.27;7.47;;;17.60;99.90;;;;;;5094828;28;20164;-67
2021/08/06 04:46:51;;;;;;;8.10;7.40;;;17.60;99.90;;;;;;5093035;28;20455;-66
2021/08/06 04:49:16;;;;;;;7.20;6.70;;;17.60;99.90;;;;;;5094117;28;20720;-66
2021/08/06 04:51:41;;;;;;;12.40;8.47;;;17.60;99.90;;;;;;5093128;28;20196;-67
2021/08/06 04:54:07;;;;;;;8.67;7.97;;;17.60;99.90;;;;;;5087781;28;20181;-66
2021/08/06 04:56:38;;;;;;;7.40;6.80;;;17.70;99.90;;;;;;5078219;28;20686;-67
2021/08/06 04:59:07;;;;;;;8.73;7.33;;;17.70;99.90;;;;;;5095526;28;20185;-68
2021/08/06 05:01:33;;;;;;;9.53;7.37;;;17.60;99.90;;;;;;5112366;28;20434;-68
2021/08/06 05:03:59;;;;;;;21.87;9.03;;;17.70;99.90;;;;;;5113529;28;20408;-67
2021/08/06 05:06:33;;;;;;;9.00;8.17;;;17.70;99.90;;;;;;5112327;28;20898;-67
2021/08/06 05:08:59;;;;;;;8.90;7.63;;;17.80;99.90;;;;;;5113780;28;20408;-66
2021/08/06 05:11:27;;;;;;;9.57;8.77;;;17.80;99.90;;;;;;5095483;28;20517;-68
2021/08/06 05:13:53;;;;;;;9.63;8.63;;;17.80;99.90;;;;;;5107030;28;20421;-68
2021/08/06 05:16:19;;;;;;;8.30;7.70;;;17.80;99.90;;;;;;5091661;28;20841;-68
2021/08/06 05:18:45;;;;;;;9.30;8.40;;;17.80;99.90;;;;;;5091852;28;20177;-68
2021/08/06 05:21:11;;;;;;;9.03;8.33;;;17.90;99.90;;;;;;5091608;28;20445;-67
2021/08/06 05:23:40;;;;;;;8.33;7.63;;;17.90;99.90;;;;;;5077748;28;20189;-67
2021/08/06 05:26:05;;;;;;;8.73;8.03;;;17.90;99.90;;;;;;5090985;28;20492;-68
2021/08/06 05:28:31;;;;;;;8.07;7.20;;;18.00;99.90;;;;;;5092631;28;20487;-66
2021/08/06 05:30:56;;;;;;;10.03;9.03;;;18.00;99.90;;;;;;5092765;28;20197;-67
2021/08/06 05:33:22;;;;;;;9.90;9.10;;;18.00;99.90;;;;;;5092564;28;20546;-73
2021/08/06 05:35:48;;;;;;;8.90;8.10;;;18.00;99.90;;;;;;5091480;28;20178;-67
2021/08/06 05:38:14;;;;;;;9.20;8.50;;;18.00;99.90;;;;;;5075522;28;20191;-67
2021/08/06 05:40:42;;;;;;;9.00;8.40;;;18.00;99.90;;;;;;5073934;28;20425;-67
2021/08/06 05:43:07;;;;;;;10.20;9.17;;;18.00;99.90;;;;;;5092202;28;20181;-67
2021/08/06 05:45:33;;;;;;;8.90;8.00;;;18.10;99.90;;;;;;5092232;28;20543;-67
2021/08/06 05:47:58;;;;;;;10.00;9.20;;;18.00;99.90;;;;;;5093324;28;20165;-67
2021/08/06 05:50:28;;;;;;;9.83;8.93;;;18.10;99.90;;;;;;5092317;28;20205;-67
2021/08/06 05:52:54;;;;;;;12.10;8.97;;;18.10;99.90;;;;;;5092416;28;20170;-67
2021/08/06 05:55:19;;;;;;;9.80;9.00;;;18.20;99.90;;;;;;5092136;28;20497;-67
2021/08/06 05:57:45;;;;;;;9.43;8.43;;;18.20;99.90;;;;;;5092234;28;20249;-69
2021/08/06 06:00:14;;;;;;;11.43;8.60;;;18.30;99.90;;;;;;5092202;28;20739;-68
2021/08/06 06:02:39;;;;;;;9.10;8.20;;;18.30;99.90;;;;;;5092379;28;20190;-69
2021/08/06 06:05:06;;;;;;;8.43;7.80;;;18.40;99.90;;;;;;5091877;28;20465;-67
2021/08/06 06:07:31;;;;;;;10.40;9.50;;;18.50;99.90;;;;;;5091941;28;20193;-69
2021/08/06 06:09:57;;;;;;;9.20;8.40;;;18.50;99.90;;;;;;5092033;28;20403;-68
2021/08/06 06:12:22;;;;;;;9.70;8.77;;;18.50;99.90;;;;;;5091878;28;20546;-67
2021/08/06 06:14:48;;;;;;;8.90;8.10;;;18.50;99.90;;;;;;5091818;28;20161;-67
2021/08/06 06:17:14;;;;;;;9.40;8.43;;;18.60;99.90;;;;;;5091763;28;20174;-67
2021/08/06 06:19:39;;;;;;;10.67;9.60;;;18.60;99.90;;;;;;5091837;28;20171;-68
2021/08/06 06:22:06;;;;;;;10.97;9.97;;;18.70;99.90;;;;;;5091778;28;20203;-68
2021/08/06 06:24:34;;;;;;;10.10;8.70;;;18.80;99.90;;;;;;5088784;28;20183;-67
2021/08/06 06:27:00;;;;;;;10.13;9.13;;;18.90;99.90;;;;;;5091347;28;20811;-67
2021/08/06 06:29:25;;;;;;;9.73;8.70;;;18.80;99.90;;;;;;5091705;28;20408;-67
2021/08/06 06:31:51;;;;;;;11.20;10.10;;;18.80;99.90;;;;;;5091436;28;20605;-68
2021/08/06 06:34:16;;;;;;;9.63;8.83;;;18.90;99.90;;;;;;5091606;28;20173;-69
2021/08/06 06:36:42;;;;;;;11.73;9.57;;;18.90;99.90;;;;;;5091611;28;20171;-67
2021/08/06 06:39:07;;;;;;;11.13;10.10;;;18.90;99.90;;;;;;5091463;28;20211;-67
2021/08/06 06:41:33;;;;;;;9.17;8.47;;;19.00;99.90;;;;;;5091245;28;20254;-67
2021/08/06 06:43:58;;;;;;;9.23;8.47;;;19.10;99.90;;;;;;5091587;28;20178;-68
2021/08/06 06:46:24;;;;;;;9.27;8.50;;;19.10;99.90;;;;;;5091520;28;20202;-67
2021/08/06 06:48:49;;;;;;;8.40;7.70;;;19.10;99.90;;;;;;5092286;28;20163;-67
2021/08/06 06:51:15;;;;;;;9.10;8.40;;;19.30;99.90;;;;;;5091161;28;20660;-67
2021/08/06 06:53:40;;;;;;;12.57;9.70;;;19.40;99.90;;;;;;5091476;28;20178;-68
2021/08/06 06:56:06;;;;;;;8.33;7.43;;;19.40;99.90;;;;;;5095004;28;20165;-67
2021/08/06 06:58:31;;;;;;;10.13;8.00;;;19.50;99.90;;;;;;5095330;28;20195;-67
2021/08/06 07:00:58;;;;;;;8.90;8.10;;;19.60;99.90;;;;;;5095388;28;20278;-67
2021/08/06 07:03:23;;;;;;;10.53;8.00;;;19.70;99.90;;;;;;5095310;28;20178;-68
2021/08/06 07:05:49;;;;;;;8.33;7.43;;;19.70;99.90;;;;;;5095369;28;20455;-67
2021/08/06 07:08:14;;;;;;;6.97;6.47;;;19.70;99.90;;;;;;5095333;28;20176;-67
2021/08/06 07:10:40;;;;;;;11.40;7.30;;;20.00;99.90;;;;;;5095243;28;20268;-67
2021/08/06 07:13:05;;;;;;;8.23;7.10;;;19.90;99.90;;;;;;5095173;28;20567;-69
2021/08/06 07:15:31;;;;;;;10.60;6.73;;;20.10;99.90;;;;;;5095150;28;20173;-67
2021/08/06 07:17:56;;;;;;;9.90;6.50;;;20.20;99.90;;;;;;5094980;28;20227;-69
2021/08/06 07:20:22;;;;;;;7.33;6.70;;;20.50;99.90;;;;;;5095090;28;20201;-68
2021/08/06 07:22:48;;;;;;;9.37;7.20;;;20.80;99.90;;;;;;5088179;28;20568;-67
2021/08/06 07:25:15;;;;;;;7.70;7.00;;;21.00;99.90;;;;;;5093514;28;20190;-69
2021/08/06 07:27:42;;;;;;;8.27;7.47;;;21.20;99.90;;;;;;5094831;28;20411;-72
2021/08/06 07:30:09;;;;;;;12.53;6.90;;;21.00;99.90;;;;;;5093176;28;20412;-67
2021/08/06 07:32:35;;;;;;;9.60;7.30;;;21.00;99.90;;;;;;5088291;28;20402;-67
2021/08/06 07:35:01;;;;;;;12.47;7.80;;;21.20;99.90;;;;;;5077698;28;20498;-67
2021/08/06 07:37:26;;;;;;;7.20;6.50;;;21.30;99.90;;;;;;5094300;28;20933;-69
2021/08/06 07:39:53;;;;;;;7.40;6.53;;;22.00;99.90;;;;;;5093222;28;20208;-69
2021/08/06 07:42:19;;;;;;;6.23;5.70;;;22.70;99.90;;;;;;5072173;28;20441;-67
2021/08/06 07:44:45;;;;;;;6.07;5.57;;;22.70;99.90;;;;;;5074677;28;20491;-67
2021/08/06 07:47:11;;;;;;;4.73;4.33;;;22.30;99.90;;;;;;5074251;28;20346;-67
2021/08/06 07:49:39;;;;;;;5.30;4.50;;;22.30;99.90;;;;;;5094652;28;20410;-68
2021/08/06 07:52:04;;;;;;;4.37;3.97;;;22.00;99.90;;;;;;5094483;28;20702;-69
2021/08/06 07:54:30;;;;;;;5.03;3.90;;;22.60;99.90;;;;;;5094219;28;20410;-68
2021/08/06 07:56:55;;;;;;;4.13;3.70;;;22.70;99.90;;;;;;5088396;28;20541;-67
2021/08/06 07:59:23;;;;;;;4.77;4.37;;;23.00;99.90;;;;;;5093536;28;20195;-67
2021/08/06 08:01:49;;;;;;;4.30;3.30;;;23.20;99.90;;;;;;5089252;28;20183;-68
2021/08/06 08:04:14;;;;;;;3.90;3.57;;;23.30;99.90;;;;;;5074533;28;20950;-66
2021/08/06 08:06:40;;;;;;;3.40;3.10;;;23.50;99.90;;;;;;5072678;28;20670;-67
2021/08/06 08:09:05;;;;;;;3.70;3.40;;;23.80;99.90;;;;;;5073615;28;20169;-66
2021/08/06 08:11:31;;;;;;;5.47;3.90;;;24.10;99.90;;;;;;5073659;28;20220;-67
2021/08/06 08:13:56;;;;;;;4.07;3.77;;;24.00;99.90;;;;;;5085939;28;20186;-66
2021/08/06 08:16:22;;;;;;;4.87;3.87;;;24.40;99.90;;;;;;5091691;28;20646;-67
2021/08/06 08:18:48;;;;;;;3.10;2.90;;;25.00;99.90;;;;;;5093694;28;20181;-66
2021/08/06 08:21:13;;;;;;;4.07;3.57;;;24.90;99.90;;;;;;5093855;28;20268;-67
2021/08/06 08:23:39;;;;;;;3.30;3.00;;;24.90;99.90;;;;;;5093465;28;20757;-67
2021/08/06 08:26:04;;;;;;;3.37;3.07;;;26.50;99.90;;;;;;5093977;28;20274;-67
2021/08/06 08:28:30;;;;;;;3.43;3.13;;;26.60;99.90;;;;;;5093860;28;20158;-67
2021/08/06 08:30:55;;;;;;;3.40;3.10;;;26.90;99.90;;;;;;5093878;28;20593;-67
2021/08/06 08:33:22;;;;;;;6.90;3.53;;;28.10;99.90;;;;;;5075915;28;20309;-68
2021/08/06 08:35:48;;;;;;;3.80;3.47;;;28.30;99.90;;;;;;5074029;28;20536;-68
2021/08/06 08:38:13;;;;;;;3.27;3.00;;;27.70;99.90;;;;;;5073113;28;20400;-68
2021/08/06 08:40:40;;;;;;;4.17;3.73;;;26.90;99.90;;;;;;5086040;28;20440;-68
2021/08/06 08:43:06;;;;;;;2.97;2.77;;;27.40;99.90;;;;;;5093636;28;20176;-68
2021/08/06 08:45:32;;;;;;;3.17;2.90;;;28.10;99.90;;;;;;5093128;28;20511;-66
2021/08/06 08:47:58;;;;;;;3.00;2.70;;;27.20;99.90;;;;;;5094505;28;20408;-67
2021/08/06 08:50:24;;;;;;;3.67;2.53;;;27.70;99.90;;;;;;5074881;28;20436;-67
2021/08/06 08:52:50;;;;;;;2.50;2.30;;;28.60;97.10;;;;;;5073039;28;20194;-67
2021/08/06 08:55:16;;;;;;;2.80;2.60;;;27.80;97.00;;;;;;5073203;28;20451;-67
2021/08/06 08:57:41;;;;;;;2.83;2.60;;;27.70;95.30;;;;;;5075056;28;20186;-67
2021/08/06 09:00:09;;;;;;;3.37;3.07;;;28.00;94.60;;;;;;5079763;28;20166;-67
2021/08/06 09:02:38;;;;;;;3.10;2.80;;;28.20;95.00;;;;;;5091587;28;20287;-66
2021/08/06 09:05:30;;;;;;;2.70;2.47;;;28.10;95.40;;;;;;5092744;28;20458;-68
2021/08/06 09:07:57;;;;;;;2.90;2.70;;;28.80;95.10;;;;;;5089987;28;20431;-68
2021/08/06 09:10:27;;;;;;;3.20;2.30;;;28.40;94.10;;;;;;5092423;28;20896;-67
2021/08/06 09:12:59;;;;;;;2.73;2.63;;;27.50;94.80;;;;;;5092835;28;20441;-67
2021/08/06 09:15:45;;;;;;;2.70;2.50;;;28.10;95.40;;;;;;5082501;28;20420;-67
2021/08/06 09:18:28;;;;;;;2.83;2.63;;;28.20;95.00;;;;;;5071968;28;20733;-67
2021/08/06 09:21:23;;;;;;;3.10;2.90;;;28.00;94.90;;;;;;5072499;28;20416;-68
2021/08/06 09:23:57;;;;;;;2.60;2.37;;;28.00;94.20;;;;;;5084757;28;20536;-69
2021/08/06 09:26:26;;;;;;;3.57;3.27;;;29.10;92.20;;;;;;5084430;28;20459;-69
2021/08/06 09:29:04;;;;;;;2.40;2.13;;;29.40;91.20;;;;;;5092316;28;20501;-67
2021/08/06 09:31:31;;;;;;;2.57;2.37;;;28.20;91.00;;;;;;5092297;28;20427;-68
2021/08/06 09:34:12;;;;;;;4.03;3.03;;;28.30;90.70;;;;;;5092413;28;20768;-67
2021/08/06 09:36:50;;;;;;;5.10;2.97;;;28.10;92.00;;;;;;5092264;28;20407;-67
2021/08/06 09:39:17;;;;;;;2.50;1.97;;;27.90;92.30;;;;;;5091544;28;21046;-68
2021/08/06 09:41:45;;;;;;;3.97;2.23;;;28.40;87.70;;;;;;5082340;28;20436;-70
2021/08/06 09:44:18;;;;;;;2.83;2.10;;;28.30;86.60;;;;;;5092494;28;20404;-68
2021/08/06 09:46:44;;;;;;;4.70;2.40;;;28.80;87.50;;;;;;5092275;28;20780;-69
2021/08/06 09:49:11;;;;;;;2.50;2.30;;;28.60;86.20;;;;;;5093040;28;20462;-68
2021/08/06 09:51:40;;;;;;;2.40;2.20;;;28.40;84.70;;;;;;5092021;28;20423;-68
2021/08/06 09:54:23;;;;;;;2.20;2.00;;;29.20;84.10;;;;;;5092000;28;20396;-70
2021/08/06 09:57:00;;;;;;;1.80;1.70;;;28.40;84.50;;;;;;5091148;28;20850;-68
2021/08/06 09:59:27;;;;;;;2.40;2.20;;;27.00;88.90;;;;;;5091898;28;20414;-67
2021/08/06 10:02:13;;;;;;;2.10;2.00;;;26.90;90.20;;;;;;5089214;28;20456;-67
2021/08/06 10:04:39;;;;;;;2.33;2.10;;;27.10;87.40;;;;;;5084330;28;20508;-68
2021/08/06 10:07:05;;;;;;;2.70;2.30;;;26.50;89.00;;;;;;5090985;28;20981;-67
2021/08/06 10:09:31;;;;;;;2.97;2.77;;;27.00;90.00;;;;;;5091824;28;20457;-68
2021/08/06 10:11:58;;;;;;;3.10;2.73;;;27.10;87.00;;;;;;5091346;28;20463;-67
2021/08/06 10:14:24;;;;;;;2.60;2.40;;;26.40;87.80;;;;;;5081916;28;20416;-67
2021/08/06 10:16:49;;;;;;;2.60;2.40;;;25.80;90.80;;;;;;5084051;28;20170;-66
2021/08/06 10:19:15;;;;;;;2.67;2.47;;;26.10;91.50;;;;;;5091840;28;20425;-67
2021/08/06 10:21:41;;;;;;;2.63;2.43;;;26.70;87.50;;;;;;5091341;28;20201;-67
2021/08/06 10:24:08;;;;;;;2.70;2.20;;;26.50;90.10;;;;;;5091707;28;20180;-67
2021/08/06 10:26:33;;;;;;;2.40;1.93;;;26.30;89.40;;;;;;5090935;28;20515;-67
2021/08/06 10:29:00;;;;;;;2.47;1.70;;;26.10;89.90;;;;;;5090965;28;20437;-67
2021/08/06 10:31:26;;;;;;;3.13;2.70;;;26.50;88.50;;;;;;5077554;28;20204;-67
2021/08/06 10:34:08;;;;;;;1.80;1.63;;;26.50;88.00;;;;;;5091453;28;20418;-68
2021/08/06 10:36:48;;;;;;;3.10;2.80;;;26.40;88.20;;;;;;5084049;28;20464;-67
2021/08/06 10:39:33;;;;;;;3.27;2.30;;;26.30;88.10;;;;;;5091310;28;20410;-67
2021/08/06 10:42:00;;;;;;;2.50;2.13;;;25.80;87.40;;;;;;5091566;28;20448;-67
2021/08/06 10:44:46;;;;;;;2.43;2.00;;;26.20;87.90;;;;;;5087314;28;20509;-69
2021/08/06 10:47:12;;;;;;;3.53;2.20;;;26.40;85.50;;;;;;5071017;28;20530;-67
2021/08/06 10:49:38;;;;;;;2.50;2.30;;;26.30;87.50;;;;;;5088456;28;20426;-67
2021/08/06 10:52:14;;;;;;;2.30;2.10;;;25.60;88.10;;;;;;5090753;28;20475;-67
2021/08/06 10:54:39;;;;;;;2.70;1.90;;;25.70;88.50;;;;;;5091325;28;20172;-71
2021/08/06 10:57:14;;;;;;;2.53;2.00;;;25.70;88.40;;;;;;5091585;28;20410;-67
2021/08/06 10:59:41;;;;;;;2.63;2.43;;;25.60;88.90;;;;;;5091427;28;20175;-67
2021/08/06 11:02:36;;;;;;;2.67;2.47;;;25.50;88.60;;;;;;5091379;28;21099;-66
2021/08/06 11:05:35;;;;;;;4.47;2.23;;;26.10;89.00;;;;;;5091273;28;20404;-67
2021/08/06 11:08:03;;;;;;;3.03;2.03;;;26.50;87.60;;;;;;5071408;28;20407;-67
2021/08/06 11:10:50;;;;;;;4.77;4.23;;;26.50;84.50;;;;;;5071399;28;20461;-67
2021/08/06 11:13:46;;;;;;;2.60;2.23;;;26.00;86.40;;;;;;5086443;28;20394;-69
2021/08/06 11:16:13;;;;;;;2.33;2.23;;;26.30;86.50;;;;;;5091397;28;20434;-68
2021/08/06 11:18:46;;;;;;;3.03;1.90;;;26.20;85.90;;;;;;5090017;28;20414;-66
2021/08/06 11:21:12;;;;;;;2.50;2.17;;;26.00;84.50;;;;;;5071046;28;20783;-67
2021/08/06 11:23:38;;;;;;;3.40;2.70;;;25.90;85.70;;;;;;5070981;28;20406;-72
2021/08/06 11:26:11;;;;;;;2.97;2.67;;;26.00;87.50;;;;;;5071124;28;20470;-74
2021/08/06 11:28:38;;;;;;;2.60;2.40;;;26.30;87.50;;;;;;5070781;28;20160;-67
2021/08/06 11:31:20;;;;;;;2.63;2.40;;;26.40;87.00;;;;;;5086183;28;20508;-67
2021/08/06 11:33:57;;;;;;;2.80;2.60;;;26.40;86.10;;;;;;5090612;28;20414;-66
2021/08/06 11:36:22;;;;;;;4.37;2.40;;;25.80;86.60;;;;;;5091389;28;20424;-66
2021/08/06 11:38:48;;;;;;;2.73;2.53;;;25.70;87.00;;;;;;5090911;28;20498;-66
2021/08/06 11:41:13;;;;;;;2.67;2.40;;;25.50;87.20;;;;;;5092104;28;20198;-67
2021/08/06 11:43:39;;;;;;;2.20;2.00;;;25.50;87.20;;;;;;5094897;28;20207;-67
2021/08/06 11:46:10;;;;;;;3.07;2.87;;;25.40;87.20;;;;;;5093496;28;20541;-66
2021/08/06 11:48:52;;;;;;;2.60;2.40;;;25.30;88.80;;;;;;5094374;28;20181;-67
2021/08/06 11:51:19;;;;;;;3.07;2.50;;;25.10;89.70;;;;;;5094704;28;20436;-67
2021/08/06 11:53:45;;;;;;;4.30;2.50;;;25.10;90.20;;;;;;5094494;28;20408;-66
2021/08/06 11:56:13;;;;;;;2.17;2.07;;;25.10;90.40;;;;;;5094375;28;20795;-67
2021/08/06 11:58:40;;;;;;;2.63;2.20;;;25.50;90.50;;;;;;5093665;28;20539;-66
2021/08/06 12:01:07;;;;;;;3.63;2.10;;;25.40;89.00;;;;;;5094392;28;20430;-66
2021/08/06 12:03:42;;;;;;;2.53;2.33;;;25.30;89.80;;;;;;5094418;28;20400;-66
2021/08/06 12:06:08;;;;;;;2.57;2.37;;;25.20;88.80;;;;;;5094244;28;20868;-67
2021/08/06 12:08:34;;;;;;;2.40;2.20;;;25.20;90.10;;;;;;5094412;28;20400;-66
2021/08/06 12:11:06;;;;;;;2.67;2.47;;;25.50;88.90;;;;;;5094198;28;20192;-66
2021/08/06 12:13:52;;;;;;;3.83;2.80;;;25.50;89.50;;;;;;5094219;28;20400;-69
2021/08/06 12:16:20;;;;;;;2.77;2.10;;;25.60;89.30;;;;;;5093856;28;20562;-66
2021/08/06 12:18:51;;;;;;;3.73;2.63;;;25.60;89.60;;;;;;5094151;28;20402;-66
2021/08/06 12:21:22;;;;;;;3.10;2.80;;;25.40;90.00;;;;;;5093691;28;20423;-67
2021/08/06 12:24:08;;;;;;;3.00;2.70;;;25.50;89.40;;;;;;5091529;28;20645;-67
2021/08/06 12:26:33;;;;;;;3.17;2.00;;;25.30;90.10;;;;;;5092282;28;20798;-66
2021/08/06 12:29:13;;;;;;;4.50;2.33;;;25.10;89.70;;;;;;5092083;28;20407;-67
2021/08/06 12:32:04;;;;;;;2.13;2.03;;;25.20;90.20;;;;;;5092123;28;20671;-66
2021/08/06 12:34:46;;;;;;;3.53;2.80;;;25.20;89.70;;;;;;5092663;28;20438;-66
2021/08/06 12:37:15;;;;;;;2.73;2.53;;;25.40;90.10;;;;;;5092420;28;20409;-67
2021/08/06 12:39:47;;;;;;;3.20;2.40;;;25.10;90.60;;;;;;5093207;28;20836;-66
2021/08/06 12:42:19;;;;;;;2.50;2.30;;;25.00;89.50;;;;;;5093694;28;20421;-66
2021/08/06 12:45:06;;;;;;;2.37;2.17;;;25.10;88.40;;;;;;5093672;28;20896;-66
2021/08/06 12:47:42;;;;;;;3.23;2.70;;;25.10;88.40;;;;;;5093627;28;20414;-67
2021/08/06 12:50:08;;;;;;;3.40;2.40;;;25.30;89.90;;;;;;5094112;28;20404;-66
2021/08/06 12:52:36;;;;;;;3.37;2.27;;;25.60;89.80;;;;;;5092759;28;20395;-66
2021/08/06 12:55:08;;;;;;;3.30;2.37;;;25.60;89.10;;;;;;5093715;28;20392;-66
2021/08/06 12:57:42;;;;;;;2.90;2.27;;;26.00;88.60;;;;;;5093582;28;20487;-66
2021/08/06 13:00:19;;;;;;;2.40;2.20;;;26.00;89.60;;;;;;5093400;28;21081;-66
2021/08/06 13:02:56;;;;;;;2.50;2.30;;;26.10;88.30;;;;;;5093127;28;20409;-66